Terminal Aerodrome Forecast
Issued by NWS

Home | Current Version | Previous Version | Text Only | Print | Product List | Glossary On
Versions: 1 2 3 4 5 6 7 8 9 10 11 12 13 14 15 16 17 18 19 20 21
000
FTUS43 KLSX 070500
TAFCPS
TAF
KCPS 070530Z 0706/0806 20010KT P6SM SCT050 BKN250
     FM070900 23010KT P6SM VCSH BKN050
     FM071400 26008KT P6SM SCT040 BKN120
     FM080000 22007KT P6SM VCTS SCT050CB BKN120=

USA.gov is the U.S. government's official web portal to all federal, state and local government web resources and services.